createdAt,value
2022-08-20T00:03:55.066Z,97183.94
2022-08-20T00:09:00.200Z,97194.19
2022-08-20T00:14:07.220Z,97197.66
2022-08-20T00:19:11.312Z,97197.06
2022-08-20T00:24:16.176Z,97198.91
2022-08-20T00:29:20.281Z,97191.22
2022-08-20T00:34:24.241Z,97195.44
2022-08-20T00:39:29.504Z,97187.53
2022-08-20T00:44:33.288Z,97184.53
2022-08-20T00:49:36.915Z,97202.91
2022-08-20T00:54:46.064Z,97195.22
2022-08-20T00:59:51.295Z,97195.63
2022-08-20T01:04:56.114Z,97185.91
2022-08-20T01:10:02.564Z,97187.28
2022-08-20T01:15:11.457Z,97180.88
2022-08-20T01:20:18.242Z,97194.84
2022-08-20T01:25:31.034Z,97204.28
2022-08-20T01:30:37.325Z,97197.41
2022-08-20T01:35:43.499Z,97202.16
2022-08-20T01:41:09.787Z,97207.09
2022-08-20T01:46:15.915Z,97205.88
2022-08-20T01:51:24.658Z,97215.94
2022-08-20T01:56:30.940Z,97215.66
2022-08-20T02:01:45.877Z,97208.69
2022-08-20T02:06:56.487Z,97214.84
2022-08-20T02:12:03.131Z,97214.50
2022-08-20T02:17:08.124Z,97220.53
2022-08-20T02:22:18.369Z,97217.25
2022-08-20T02:27:23.937Z,97220.16
2022-08-20T02:32:34.176Z,97216.81
2022-08-20T02:37:39.241Z,97226.38
2022-08-20T02:42:43.412Z,97222.47
2022-08-20T02:47:51.129Z,97216.66
2022-08-20T02:52:55.044Z,97215.34
2022-08-20T02:58:00.363Z,97226.59
2022-08-20T03:03:05.645Z,97215.03
2022-08-20T03:08:10.910Z,97215.41
2022-08-20T03:13:15.993Z,97224.97
2022-08-20T03:18:23.061Z,97220.94
2022-08-20T03:23:26.613Z,97219.94
2022-08-20T03:28:30.260Z,97223.81
2022-08-20T03:33:35.240Z,97223.81
2022-08-20T03:38:38.737Z,97222.13
2022-08-20T03:43:42.233Z,97222.78
2022-08-20T03:48:47.216Z,97217.63
2022-08-20T03:53:52.673Z,97229.38
2022-08-20T03:58:57.045Z,97237.72
2022-08-20T04:04:02.115Z,97238.81
2022-08-20T04:09:06.279Z,97240.41
2022-08-20T04:14:11.398Z,97243.16
2022-08-20T04:19:22.530Z,97241.03
2022-08-20T04:24:32.184Z,97241.06
2022-08-20T04:29:37.830Z,97230.31
2022-08-20T04:34:44.578Z,97236.09
2022-08-20T04:40:05.725Z,97241.56
2022-08-20T04:45:10.042Z,97247.91
2022-08-20T04:50:15.778Z,97242.81
2022-08-20T04:55:19.536Z,97250.88
2022-08-20T05:00:23.178Z,97259.91
2022-08-20T05:05:28.190Z,97257.69
2022-08-20T05:10:32.256Z,97260.88
2022-08-20T05:15:36.912Z,97283.56
2022-08-20T05:20:43.479Z,97283.47
2022-08-20T05:25:51.525Z,97285.25
2022-08-20T05:30:55.190Z,97279.34
2022-08-20T05:36:00.226Z,97279.59
2022-08-20T05:41:04.856Z,97296.75
2022-08-20T05:46:08.544Z,97302.09
2022-08-20T05:51:15.292Z,97299.31
2022-08-20T05:56:18.960Z,97296.81
2022-08-20T06:01:25.378Z,97285.44
2022-08-20T06:06:44.671Z,97296.78
2022-08-20T06:11:50.161Z,97305.00
2022-08-20T06:16:58.014Z,97305.31
2022-08-20T06:22:18.411Z,97308.59
2022-08-20T06:27:26.316Z,97299.34
2022-08-20T06:32:32.593Z,97304.69
2022-08-20T06:37:39.874Z,97312.56
2022-08-20T06:42:48.607Z,97308.34
2022-08-20T06:47:54.514Z,97312.56
2022-08-20T06:53:00.284Z,97326.19
2022-08-20T06:58:06.748Z,97323.94
2022-08-20T07:03:19.313Z,97318.25
2022-08-20T07:08:24.442Z,97309.91
2022-08-20T07:13:28.839Z,97306.63
2022-08-20T07:18:33.216Z,97312.00
2022-08-20T07:23:38.489Z,97307.59
2022-08-20T07:28:42.280Z,97302.88
2022-08-20T07:33:46.131Z,97304.34
2022-08-20T07:38:52.650Z,97309.44
2022-08-20T07:43:56.636Z,97316.31
2022-08-20T07:49:00.765Z,97309.03
2022-08-20T07:54:06.290Z,97324.25
2022-08-20T07:59:10.122Z,97316.13
2022-08-20T08:04:13.865Z,97317.13
2022-08-20T08:09:19.375Z,97324.34
2022-08-20T08:14:27.046Z,97322.75
2022-08-20T08:19:37.981Z,97320.47
2022-08-20T08:24:47.841Z,97325.88
2022-08-20T08:30:01.257Z,97326.66
2022-08-20T08:35:06.355Z,97331.88
2022-08-20T08:40:12.331Z,97333.72
2022-08-20T08:45:17.774Z,97329.00
2022-08-20T08:50:50.036Z,97338.97
2022-08-20T08:55:50.977Z,97339.81
2022-08-20T09:00:56.477Z,97330.84
2022-08-20T09:06:05.539Z,97338.13
2022-08-20T09:11:10.557Z,97340.13
2022-08-20T09:16:15.427Z,97348.53
2022-08-20T09:21:19.905Z,97345.00
2022-08-20T09:26:25.760Z,97345.16
2022-08-20T09:31:33.071Z,97340.38
2022-08-20T09:36:36.830Z,97339.78
2022-08-20T09:41:41.930Z,97340.41
2022-08-20T09:46:45.658Z,97330.53
2022-08-20T09:51:49.498Z,97333.69
2022-08-20T09:56:54.729Z,97328.44
2022-08-20T10:01:58.563Z,97332.53
2022-08-20T10:07:02.264Z,97336.91
2022-08-20T10:12:08.082Z,97335.19
2022-08-20T10:17:12.044Z,97335.03
2022-08-20T10:22:15.699Z,97344.38
2022-08-20T10:27:20.726Z,97351.03
2022-08-20T10:32:24.524Z,97350.63
2022-08-20T10:37:28.266Z,97344.53
2022-08-20T10:42:33.542Z,97344.38
2022-08-20T10:47:37.237Z,97351.41
2022-08-20T10:52:41.077Z,97343.97
2022-08-20T10:57:46.496Z,97340.38
2022-08-20T11:02:50.863Z,97349.53
2022-08-20T11:07:56.722Z,97346.44
2022-08-20T11:13:08.791Z,97346.84
2022-08-20T11:18:14.519Z,97345.75
2022-08-20T11:23:18.121Z,97345.53
2022-08-20T11:28:31.742Z,97339.00
2022-08-20T11:33:35.825Z,97338.50
2022-08-20T11:38:39.518Z,97338.72
2022-08-20T11:43:59.539Z,97340.81
2022-08-20T11:49:08.359Z,97343.88
2022-08-20T11:54:11.867Z,97336.38
2022-08-20T11:59:17.509Z,97329.81
2022-08-20T12:04:21.080Z,97327.28
2022-08-20T12:09:29.130Z,97334.81
2022-08-20T12:14:34.505Z,97324.28
2022-08-20T12:19:39.665Z,97326.94
2022-08-20T12:24:43.504Z,97316.97
2022-08-20T12:29:53.218Z,97311.06
2022-08-20T12:34:58.046Z,97313.47
2022-08-20T12:40:03.833Z,97308.59
2022-08-20T12:45:10.294Z,97312.09
2022-08-20T12:50:18.263Z,97303.13
2022-08-20T12:55:22.189Z,97312.56
2022-08-20T13:00:30.179Z,97314.69
2022-08-20T13:05:35.542Z,97319.00
2022-08-20T13:10:44.548Z,97326.56
2022-08-20T13:15:51.471Z,97325.72
2022-08-20T13:20:55.125Z,97328.28
2022-08-20T13:25:58.702Z,97326.28
2022-08-20T13:31:03.753Z,97314.94
2022-08-20T13:36:07.940Z,97315.09
2022-08-20T13:41:11.697Z,97322.72
2022-08-20T13:46:16.853Z,97316.75
2022-08-20T13:51:21.694Z,97298.66
2022-08-20T13:56:25.432Z,97311.53
2022-08-20T14:01:31.196Z,97313.81
2022-08-20T14:06:35.054Z,97304.31
2022-08-20T14:11:38.823Z,97304.34
2022-08-20T14:16:43.837Z,97302.00
2022-08-20T14:21:48.051Z,97306.34
2022-08-20T14:26:51.583Z,97302.28
2022-08-20T14:31:56.333Z,97301.56
2022-08-20T14:37:12.095Z,97303.66
2022-08-20T14:42:16.279Z,97297.22
2022-08-20T14:47:23.429Z,97292.94
2022-08-20T14:52:28.106Z,97291.50
2022-08-20T14:57:31.933Z,97307.16
2022-08-20T15:02:37.310Z,97330.66
2022-08-20T15:07:43.193Z,97359.88
2022-08-20T15:12:47.009Z,97369.97
2022-08-20T15:17:54.926Z,97393.19
2022-08-20T15:22:58.727Z,97376.50
2022-08-20T15:28:04.604Z,97370.03
2022-08-20T15:33:10.577Z,97363.63
2022-08-20T15:38:14.299Z,97362.94
2022-08-20T15:43:17.880Z,97367.22
2022-08-20T15:48:31.884Z,97380.69
2022-08-20T15:53:44.130Z,97395.16
2022-08-20T15:58:55.125Z,97399.16
2022-08-20T16:04:29.621Z,97402.16
2022-08-20T16:09:47.832Z,97408.50
2022-08-20T16:14:58.626Z,97405.28
2022-08-20T16:20:11.449Z,97424.69
2022-08-20T16:25:17.479Z,97437.09
2022-08-20T16:30:31.649Z,97450.91
2022-08-20T16:35:42.872Z,97444.53
2022-08-20T16:40:49.985Z,97454.25
2022-08-20T16:46:00.338Z,97446.47
2022-08-20T16:51:11.709Z,97461.09
2022-08-20T16:56:15.545Z,97437.41
2022-08-20T17:01:27.435Z,97436.75
2022-08-20T17:06:38.111Z,97421.06
2022-08-20T17:12:17.026Z,97415.69
2022-08-20T17:17:24.168Z,97415.06
2022-08-20T17:22:32.615Z,97407.06
2022-08-20T17:27:39.738Z,97409.97
2022-08-20T17:32:57.318Z,97416.63
2022-08-20T17:38:04.212Z,97417.94
2022-08-20T17:43:10.104Z,97428.69
2022-08-20T17:48:19.316Z,97420.38
2022-08-20T17:53:28.576Z,97422.81
2022-08-20T17:58:38.354Z,97422.53
2022-08-20T18:03:42.381Z,97432.00
2022-08-20T18:08:56.974Z,97421.19
2022-08-20T18:14:17.895Z,97423.97
2022-08-20T18:19:36.786Z,97418.50
2022-08-20T18:24:50.563Z,97419.88
2022-08-20T18:30:01.415Z,97428.66
2022-08-20T18:35:12.135Z,97437.50
2022-08-20T18:40:27.888Z,97433.16
2022-08-20T18:45:35.010Z,97434.72
2022-08-20T18:50:48.213Z,97448.81
2022-08-20T18:56:05.949Z,97457.31
2022-08-20T19:01:14.682Z,97454.78
2022-08-20T19:06:32.251Z,97470.84
2022-08-20T19:12:06.120Z,97468.25
2022-08-20T19:17:16.252Z,97471.94
2022-08-20T19:22:22.193Z,97481.13
2022-08-20T19:27:30.646Z,97480.00
2022-08-20T19:32:35.852Z,97480.81
2022-08-20T19:37:50.945Z,97484.22
2022-08-20T19:42:59.366Z,97480.66
2022-08-20T19:48:15.271Z,97479.22
2022-08-20T19:53:30.702Z,97481.22
2022-08-20T19:58:37.142Z,97482.53
2022-08-20T20:03:40.885Z,97489.41
2022-08-20T20:08:53.667Z,97482.88
2022-08-20T20:14:06.878Z,97486.34
2022-08-20T20:19:26.276Z,97477.19
2022-08-20T20:24:40.609Z,97477.94
2022-08-20T20:29:46.276Z,97481.28
2022-08-20T20:34:56.163Z,97472.19
2022-08-20T20:40:07.911Z,97478.56
2022-08-20T20:45:33.478Z,97482.56
2022-08-20T20:50:38.882Z,97486.25
2022-08-20T20:55:54.135Z,97492.56
2022-08-20T21:00:59.383Z,97492.50
2022-08-20T21:06:03.633Z,97494.97
2022-08-20T21:11:08.081Z,97492.53
2022-08-20T21:16:13.638Z,97497.22
2022-08-20T21:21:17.922Z,97497.69
2022-08-20T21:26:22.354Z,97499.66
2022-08-20T21:31:33.966Z,97507.84
2022-08-20T21:36:37.911Z,97498.66
2022-08-20T21:41:43.036Z,97503.97
2022-08-20T21:46:48.764Z,97512.16
2022-08-20T21:51:53.045Z,97504.66
2022-08-20T21:57:03.286Z,97504.97
2022-08-20T22:02:08.612Z,97499.69
2022-08-20T22:07:13.791Z,97496.03
2022-08-20T22:12:21.473Z,97497.75
2022-08-20T22:17:27.603Z,97500.31
2022-08-20T22:22:32.010Z,97490.16
2022-08-20T22:27:35.909Z,97483.13
2022-08-20T22:32:52.063Z,97474.59
2022-08-20T22:37:56.210Z,97492.34
2022-08-20T22:42:59.976Z,97484.81
2022-08-20T22:48:08.343Z,97480.78
2022-08-20T22:53:12.818Z,97492.25
2022-08-20T22:58:16.853Z,97491.16
2022-08-20T23:03:29.195Z,97490.25
2022-08-20T23:08:45.075Z,97483.41
2022-08-20T23:13:48.906Z,97480.50
2022-08-20T23:18:54.118Z,97483.41
2022-08-20T23:23:57.780Z,97482.94
2022-08-20T23:29:01.628Z,97479.03
2022-08-20T23:34:06.864Z,97471.00
2022-08-20T23:39:11.166Z,97467.41
2022-08-20T23:44:25.199Z,97476.91
2022-08-20T23:49:33.442Z,97468.84
2022-08-20T23:54:37.213Z,97482.03
2022-08-20T23:59:40.867Z,97472.88
